Map

Track Data

SID SEASON NUMBER BASIN SUBBASIN NAME ISO_TIME NATURE LAT LON WMO_WIND WMO_PRES WMO_AGENCY TRACK_TYPE DIST2LAND LANDFALL IFLAG USA_AGENCY USA_ATCF_ID USA_LAT USA_LON USA_RECORD USA_STATUS USA_WIND USA_PRES USA_SSHS USA_R34_NE USA_R34_SE USA_R34_SW USA_R34_NW USA_R50_NE USA_R50_SE USA_R50_SW USA_R50_NW USA_R64_NE USA_R64_SE USA_R64_SW USA_R64_NW USA_POCI USA_ROCI USA_RMW USA_EYE TOKYO_LAT TOKYO_LON TOKYO_GRADE TOKYO_WIND TOKYO_PRES TOKYO_R50_DIR TOKYO_R50_LONG TOKYO_R50_SHORT TOKYO_R30_DIR TOKYO_R30_LONG TOKYO_R30_SHORT TOKYO_LAND CMA_LAT CMA_LON CMA_CAT CMA_WIND CMA_PRES HKO_LAT HKO_LON HKO_CAT HKO_WIND HKO_PRES NEWDELHI_LAT NEWDELHI_LON NEWDELHI_GRADE NEWDELHI_WIND NEWDELHI_PRES NEWDELHI_CI NEWDELHI_DP NEWDELHI_POCI REUNION_LAT REUNION_LON REUNION_TYPE REUNION_WIND REUNION_PRES REUNION_TNUM REUNION_CI REUNION_RMW REUNION_R34_NE REUNION_R34_SE REUNION_R34_SW REUNION_R34_NW REUNION_R50_NE REUNION_R50_SE REUNION_R50_SW REUNION_R50_NW REUNION_R64_NE REUNION_R64_SE REUNION_R64_SW REUNION_R64_NW BOM_LAT BOM_LON BOM_TYPE BOM_WIND BOM_PRES BOM_TNUM BOM_CI BOM_RMW BOM_R34_NE BOM_R34_SE BOM_R34_SW BOM_R34_NW BOM_R50_NE BOM_R50_SE BOM_R50_SW BOM_R50_NW BOM_R64_NE BOM_R64_SE BOM_R64_SW BOM_R64_NW BOM_ROCI BOM_POCI BOM_EYE BOM_POS_METHOD BOM_PRES_METHOD NADI_LAT NADI_LON NADI_CAT NADI_WIND NADI_PRES WELLINGTON_LAT WELLINGTON_LON WELLINGTON_WIND WELLINGTON_PRES DS824_LAT DS824_LON DS824_STAGE DS824_WIND DS824_PRES TD9636_LAT TD9636_LON TD9636_STAGE TD9636_WIND TD9636_PRES TD9635_LAT TD9635_LON TD9635_WIND TD9635_PRES TD9635_ROCI NEUMANN_LAT NEUMANN_LON NEUMANN_CLASS NEUMANN_WIND NEUMANN_PRES MLC_LAT MLC_LON MLC_CLASS MLC_WIND MLC_PRES USA_GUST BOM_GUST BOM_GUST_PER REUNION_GUST REUNION_GUST_PER USA_SEAHGT USA_SEARAD_NE USA_SEARAD_SE USA_SEARAD_SW USA_SEARAD_NW STORM_SPEED STORM_DIR
1901264N17085 1901 33 NI BB NOT_NAMED 1901-09-21 00:00:00 TS 16.9000 85.3000 main 201 179 _________O____ -1 16.9000 85.3000 TC 30 3 290
1901264N17085 1901 33 NI BB NOT_NAMED 1901-09-21 03:00:00 TS 16.9584 85.1283 main 179 158 _________PO___ -1 16.9876 85.0425 TC 30 16.9000 85.3000 1 4 294
1901264N17085 1901 33 NI BB NOT_NAMED 1901-09-21 06:00:00 TS 17.0739 84.8965 main 158 138 _________OP___ -1 17.1000 84.8000 TC 30 17.0348 85.0412 1 5 300
1901264N17085 1901 33 NI BB NOT_NAMED 1901-09-21 09:00:00 TS 17.2138 84.6753 main 138 119 _________PP___ -1 17.2500 84.5850 TC 30 17.1656 84.7957 1 5 305
1901264N17085 1901 33 NI BB NOT_NAMED 1901-09-21 12:00:00 TS 17.3443 84.4887 main 119 99 _________OP___ -1 17.4000 84.4000 TC 30 17.2885 84.5774 1 4 305
1901264N17085 1901 33 NI BB NOT_NAMED 1901-09-21 15:00:00 TS 17.4500 84.3212 main 99 84 _________PO___ -1 17.5000 84.2424 TC 30 17.4000 84.4000 1 4 305
1901264N17085 1901 33 NI BB NOT_NAMED 1901-09-21 18:00:00 TS 17.5501 84.1842 main 74 59 _________OP___ -1 17.6000 84.1000 TC 30 17.5002 84.2684 1 3 312
1901264N17085 1901 33 NI BB NOT_NAMED 1901-09-21 21:00:00 TS 17.6658 84.0694 main 59 38 _________PP___ -1 17.7274 83.9873 TC 30 17.6043 84.1515 1 4 315
1901264N17085 1901 33 NI BB NOT_NAMED 1901-09-22 00:00:00 TS 17.8157 83.9044 main 38 0 _________OP___ -1 17.9000 83.8000 TC 30 17.7313 84.0088 1 6 309
1901264N17085 1901 33 NI BB NOT_NAMED 1901-09-22 03:00:00 TS 18.0138 83.6188 main 0 0 _________PO___ -1 18.1276 83.4375 TC 30 17.9000 83.8000 1 8 305
1901264N17085 1901 33 NI BB NOT_NAMED 1901-09-22 06:00:00 TS 18.2642 83.2241 main 0 0 _________OP___ -1 18.4000 83.0000 TC 30 18.1284 83.4481 1 9 304
1901264N17085 1901 33 NI BB NOT_NAMED 1901-09-22 09:00:00 TS 18.5455 82.8042 main 0 0 _________PP___ -1 18.6925 82.5775 TC 30 18.3984 83.0309 1 10 307
1901264N17085 1901 33 NI BB NOT_NAMED 1901-09-22 12:00:00 TS 18.8470 82.3990 main 0 0 _________OP___ -1 19.0000 82.2000 TC 30 18.6941 82.5981 1 9 311
1901264N17085 1901 33 NI BB NOT_NAMED 1901-09-22 15:00:00 TS 19.1499 82.0636 main 0 0 _________PO___ -1 19.2999 81.9273 TC 30 19.0000 82.2000 1 8 317
1901264N17085 1901 33 NI BB NOT_NAMED 1901-09-22 18:00:00 TS 19.4482 81.7992 main 0 0 _________OP___ -1 19.6000 81.7000 TC 30 19.2965 81.8983 1 8 321
1901264N17085 1901 33 NI BB NOT_NAMED 1901-09-22 21:00:00 TS 19.7535 81.5410 main 0 0 _________PP___ -1 19.9075 81.4425 TC 30 19.5995 81.6395 1 8 322
1901264N17085 1901 33 NI BB NOT_NAMED 1901-09-23 00:00:00 TS 20.0514 81.3055 main 0 0 _________OP___ -1 20.2000 81.2000 TC 30 19.9028 81.4109 1 7 324
1901264N17085 1901 33 NI BB NOT_NAMED 1901-09-23 03:00:00 TS 20.3250 81.0962 main 0 0 _________PO___ -1 20.4499 80.9923 TC 30 20.2000 81.2000 1 7 323
1901264N17085 1901 33 NI BB NOT_NAMED 1901-09-23 06:00:00 TS 20.5809 80.8865 main 0 0 _________OP___ -1 20.7000 80.8000 TC 30 20.4618 80.9731 1 7 323
1901264N17085 1901 33 NI BB NOT_NAMED 1901-09-23 09:00:00 TS 20.8487 80.6772 main 0 0 _________PP___ -1 20.9775 80.5924 TC 30 20.7199 80.7620 1 7 326
1901264N17085 1901 33 NI BB NOT_NAMED 1901-09-23 12:00:00 TS 21.1465 80.4850 main 0 0 _________OP___ -1 21.3000 80.4000 TC 30 20.9931 80.5700 1 7 332
1901264N17085 1901 33 NI BB NOT_NAMED 1901-09-23 15:00:00 TS 21.4925 80.3175 main 0 0 _________PO___ -1 21.6850 80.2350 TC 30 21.3000 80.4000 1 8 338
1901264N17085 1901 33 NI BB NOT_NAMED 1901-09-23 18:00:00 TS 21.8452 80.1877 main 0 0 _________OP___ -1 22.1000 80.1000 TC 30 21.6541 80.2535 1 8 343
1901264N17085 1901 33 NI BB NOT_NAMED 1901-09-23 21:00:00 TS 22.2305 80.0724 main 0 0 _________PP___ -1 22.5050 79.9926 TC 30 22.0475 80.1256 1 8 346
1901264N17085 1901 33 NI BB NOT_NAMED 1901-09-24 00:00:00 TS 22.6115 79.9733 main 0 0 _________OP___ -1 22.9000 79.9000 TC 30 22.4672 80.0099 1 7 347
1901264N17085 1901 33 NI BB NOT_NAMED 1901-09-24 03:00:00 NR 22.9000 79.9000 main 0 __________O___ -1 TC 22.9000 79.9000 1 6 347

About IBTrACS Database

This database is a web-friendly format of International Best Track Archive for Climate Stewardship (IBTrACS), a global best track data archive curated by NOAA dating back to 1842.

Updated: 2021-12-03